createdAt,value
2023-03-29T00:01:10.268Z,3.50
2023-03-29T00:04:14.001Z,5.47
2023-03-29T00:07:15.710Z,3.92
2023-03-29T00:10:17.569Z,6.00
2023-03-29T00:13:19.225Z,3.03
2023-03-29T00:16:21.039Z,3.88
2023-03-29T00:19:22.905Z,3.53
2023-03-29T00:22:24.740Z,3.80
2023-03-29T00:25:27.595Z,3.60
2023-03-29T00:28:29.345Z,8.68
2023-03-29T00:31:31.723Z,3.88
2023-03-29T00:34:36.076Z,6.63
2023-03-29T00:37:38.040Z,3.80
2023-03-29T00:40:44.820Z,3.60
2023-03-29T00:44:04.422Z,8.05
2023-03-29T00:47:06.001Z,4.45
2023-03-29T00:50:16.401Z,2.60
2023-03-29T00:53:18.835Z,2.60
2023-03-29T00:56:27.502Z,3.42
2023-03-29T00:59:33.069Z,4.95
2023-03-29T01:02:39.823Z,2.72
2023-03-29T01:05:46.568Z,5.18
2023-03-29T01:09:01.248Z,4.07
2023-03-29T01:12:13.324Z,9.48
2023-03-29T01:15:20.031Z,4.07
2023-03-29T01:18:23.023Z,3.03
2023-03-29T01:21:37.831Z,3.58
2023-03-29T01:25:15.351Z,4.03
2023-03-29T01:28:22.555Z,5.68
2023-03-29T01:31:36.860Z,4.70
2023-03-29T01:34:42.055Z,6.68
2023-03-29T01:37:57.217Z,5.60
2023-03-29T01:40:58.978Z,4.00
2023-03-29T01:44:10.131Z,3.58
2023-03-29T01:47:42.645Z,5.15
2023-03-29T01:50:49.740Z,5.30
2023-03-29T01:53:59.291Z,7.97
2023-03-29T01:57:04.620Z,3.83
2023-03-29T02:00:10.897Z,4.80
2023-03-29T02:03:17.533Z,4.70
2023-03-29T02:06:23.821Z,7.25
2023-03-29T02:09:27.071Z,3.90
2023-03-29T02:12:29.830Z,4.75
2023-03-29T02:15:31.575Z,3.78
2023-03-29T02:18:35.577Z,4.40
2023-03-29T02:21:48.307Z,4.80
2023-03-29T02:24:52.296Z,9.18
2023-03-29T02:27:56.065Z,5.30
2023-03-29T02:31:20.277Z,5.22
2023-03-29T02:34:49.407Z,3.97
2023-03-29T02:37:54.593Z,3.72
2023-03-29T02:40:58.981Z,4.53
2023-03-29T02:44:02.413Z,4.50
2023-03-29T02:47:22.366Z,3.85
2023-03-29T02:50:32.047Z,4.00
2023-03-29T02:53:42.284Z,4.10
2023-03-29T02:57:05.162Z,4.18
2023-03-29T03:00:10.303Z,9.95
2023-03-29T03:03:13.038Z,4.20
2023-03-29T03:06:15.289Z,4.13
2023-03-29T03:09:17.127Z,5.03
2023-03-29T03:12:21.513Z,4.10
2023-03-29T03:15:23.161Z,6.55
2023-03-29T03:18:24.934Z,4.88
2023-03-29T03:21:28.304Z,5.15
2023-03-29T03:24:29.925Z,7.95
2023-03-29T03:27:33.939Z,4.65
2023-03-29T03:30:35.876Z,3.50
2023-03-29T03:33:53.005Z,5.50
2023-03-29T03:37:21.020Z,5.07
2023-03-29T03:40:22.721Z,4.95
2023-03-29T03:43:24.417Z,6.00
2023-03-29T03:46:28.354Z,4.28
2023-03-29T03:49:32.458Z,5.15
2023-03-29T03:52:34.339Z,6.80
2023-03-29T03:55:36.390Z,6.75
2023-03-29T03:58:44.412Z,6.63
2023-03-29T04:01:46.306Z,4.78
2023-03-29T04:04:51.970Z,7.80
2023-03-29T04:07:56.309Z,5.05
2023-03-29T04:11:33.820Z,7.78
2023-03-29T04:14:35.678Z,5.75
2023-03-29T04:17:43.983Z,6.45
2023-03-29T04:24:08.912Z,6.43
2023-03-29T04:27:13.411Z,6.85
2023-03-29T04:30:15.225Z,6.22
2023-03-29T04:33:46.893Z,5.15
2023-03-29T04:36:52.538Z,6.53
2023-03-29T04:40:00.630Z,5.90
2023-03-29T04:43:08.306Z,6.82
2023-03-29T04:46:15.894Z,6.22
2023-03-29T04:49:35.731Z,9.07
2023-03-29T04:52:42.174Z,7.10
2023-03-29T04:55:46.506Z,7.30
2023-03-29T04:58:53.501Z,8.68
2023-03-29T05:01:56.504Z,7.72
2023-03-29T05:04:58.297Z,11.07
2023-03-29T05:08:00.388Z,7.53
2023-03-29T05:11:10.895Z,7.35
2023-03-29T05:14:12.657Z,5.85
2023-03-29T05:17:14.675Z,6.28
2023-03-29T05:20:17.574Z,7.18
2023-03-29T05:23:22.990Z,9.52
2023-03-29T05:26:51.999Z,8.48
2023-03-29T05:29:54.513Z,8.95
2023-03-29T05:33:02.674Z,8.10
2023-03-29T05:36:08.547Z,8.25
2023-03-29T05:39:14.447Z,6.20
2023-03-29T05:42:19.407Z,9.25
2023-03-29T05:45:29.909Z,7.57
2023-03-29T05:48:36.070Z,7.72
2023-03-29T05:51:38.000Z,7.57
2023-03-29T05:54:40.348Z,9.25
2023-03-29T05:57:42.327Z,8.73
2023-03-29T06:00:44.419Z,8.85
2023-03-29T06:04:06.560Z,7.20
2023-03-29T06:07:16.453Z,7.28
2023-03-29T06:10:25.195Z,7.80
2023-03-29T06:13:34.893Z,7.45
2023-03-29T06:16:38.096Z,8.25
2023-03-29T06:19:40.977Z,6.95
2023-03-29T06:22:43.559Z,7.65
2023-03-29T06:25:47.395Z,11.50
2023-03-29T06:28:51.955Z,8.57
2023-03-29T06:31:54.821Z,7.30
2023-03-29T06:35:16.648Z,6.00
2023-03-29T06:38:26.209Z,7.40
2023-03-29T06:41:44.242Z,5.72
2023-03-29T06:45:00.139Z,8.07
2023-03-29T06:48:03.416Z,8.45
2023-03-29T06:51:07.721Z,6.90
2023-03-29T06:54:09.802Z,6.68
2023-03-29T06:57:16.467Z,5.90
2023-03-29T07:00:27.883Z,6.78
2023-03-29T07:03:52.818Z,6.78
2023-03-29T07:07:02.161Z,6.70
2023-03-29T07:10:07.403Z,6.05
2023-03-29T07:13:28.293Z,6.35
2023-03-29T07:16:32.822Z,5.28
2023-03-29T07:19:44.249Z,6.60
2023-03-29T07:23:05.771Z,14.32
2023-03-29T07:26:08.205Z,8.15
2023-03-29T07:29:10.669Z,9.05
2023-03-29T07:32:12.720Z,7.53
2023-03-29T07:35:21.147Z,8.20
2023-03-29T07:38:23.067Z,6.05
2023-03-29T07:41:32.313Z,6.85
2023-03-29T07:44:41.692Z,6.47
2023-03-29T07:47:44.906Z,6.90
2023-03-29T07:50:46.884Z,6.85
2023-03-29T07:53:49.920Z,8.23
2023-03-29T07:57:17.964Z,5.88
2023-03-29T08:00:28.322Z,5.95
2023-03-29T08:03:50.270Z,7.53
2023-03-29T08:06:52.976Z,5.82
2023-03-29T08:09:56.389Z,6.13
2023-03-29T08:13:11.803Z,7.28
2023-03-29T08:16:29.451Z,7.45
2023-03-29T08:19:39.637Z,6.70
2023-03-29T08:22:43.169Z,5.43
2023-03-29T08:26:03.784Z,5.22
2023-03-29T08:29:06.652Z,4.68
2023-03-29T08:32:08.475Z,5.60
2023-03-29T08:35:10.533Z,7.97
2023-03-29T08:38:24.844Z,6.82
2023-03-29T08:41:45.056Z,7.05
2023-03-29T08:44:47.167Z,6.53
2023-03-29T08:48:11.800Z,5.32
2023-03-29T08:51:41.677Z,7.53
2023-03-29T08:54:47.173Z,5.43
2023-03-29T08:58:08.151Z,5.75
2023-03-29T09:01:11.832Z,7.03
2023-03-29T09:04:42.582Z,7.88
2023-03-29T09:08:03.038Z,6.85
2023-03-29T09:11:23.944Z,8.20
2023-03-29T09:14:52.483Z,5.70
2023-03-29T09:18:07.291Z,5.13
2023-03-29T09:21:18.188Z,7.32
2023-03-29T09:24:41.017Z,6.65
2023-03-29T09:28:04.487Z,7.90
2023-03-29T09:31:35.515Z,6.72
2023-03-29T09:34:49.414Z,6.20
2023-03-29T09:37:55.659Z,4.97
2023-03-29T09:41:05.500Z,5.03
2023-03-29T09:44:27.747Z,5.82
2023-03-29T09:47:40.972Z,6.80
2023-03-29T09:50:51.221Z,5.55
2023-03-29T09:53:56.692Z,9.00
2023-03-29T09:57:33.749Z,8.38
2023-03-29T10:00:36.903Z,6.72
2023-03-29T10:03:40.125Z,7.13
2023-03-29T10:06:52.860Z,7.30
2023-03-29T10:09:56.597Z,8.18
2023-03-29T10:13:10.142Z,5.93
2023-03-29T10:16:28.978Z,6.18
2023-03-29T10:19:35.671Z,4.50
2023-03-29T10:22:38.081Z,5.97
2023-03-29T10:25:42.595Z,5.57
2023-03-29T10:28:45.152Z,6.97
2023-03-29T10:31:48.205Z,5.80
2023-03-29T10:34:51.947Z,7.85
2023-03-29T10:37:56.503Z,5.10
2023-03-29T10:41:12.555Z,5.28
2023-03-29T10:44:38.375Z,5.68
2023-03-29T10:47:45.431Z,7.28
2023-03-29T10:50:52.965Z,7.55
2023-03-29T10:53:56.087Z,5.07
2023-03-29T10:57:10.490Z,9.18
2023-03-29T11:00:27.461Z,5.05
2023-03-29T11:04:23.833Z,6.57
2023-03-29T11:07:45.200Z,7.30
2023-03-29T11:10:54.070Z,7.20
2023-03-29T11:14:33.157Z,8.40
2023-03-29T11:17:54.837Z,6.45
2023-03-29T11:21:14.233Z,6.45
2023-03-29T11:24:33.916Z,6.95
2023-03-29T11:28:04.944Z,9.07
2023-03-29T11:34:53.373Z,8.45
2023-03-29T11:38:39.957Z,7.45
2023-03-29T11:41:44.860Z,9.60
2023-03-29T11:44:54.626Z,8.80
2023-03-29T11:48:00.333Z,8.35
2023-03-29T11:51:18.785Z,8.55
2023-03-29T11:54:45.510Z,9.90
2023-03-29T11:58:02.868Z,8.98
2023-03-29T12:01:10.721Z,6.28
2023-03-29T12:04:22.905Z,7.97
2023-03-29T12:07:36.012Z,7.28
2023-03-29T12:10:47.968Z,10.23
2023-03-29T12:14:02.741Z,7.97
2023-03-29T12:17:12.786Z,7.63
2023-03-29T12:20:38.935Z,7.10
2023-03-29T12:23:44.957Z,7.38
2023-03-29T12:26:56.949Z,6.95
2023-03-29T12:30:33.203Z,6.63
2023-03-29T12:33:43.840Z,6.75
2023-03-29T12:37:52.824Z,6.50
2023-03-29T12:41:28.812Z,6.05
2023-03-29T12:44:34.320Z,5.63
2023-03-29T12:47:53.305Z,7.07
2023-03-29T12:51:06.382Z,4.65
2023-03-29T12:54:17.199Z,5.53
2023-03-29T12:57:26.233Z,4.88
2023-03-29T13:00:42.741Z,5.43
2023-03-29T13:03:56.435Z,5.57
2023-03-29T13:07:08.920Z,6.88
2023-03-29T13:10:31.617Z,4.45
2023-03-29T13:13:37.030Z,4.93
2023-03-29T13:16:40.578Z,5.70
2023-03-29T13:19:59.858Z,4.25
2023-03-29T13:23:36.376Z,5.72
2023-03-29T13:26:53.484Z,5.57
2023-03-29T13:30:32.931Z,5.60
2023-03-29T13:34:00.019Z,6.68
2023-03-29T13:37:28.198Z,6.30
2023-03-29T13:40:29.979Z,5.55
2023-03-29T13:43:37.817Z,6.28
2023-03-29T13:46:42.605Z,7.15
2023-03-29T13:49:51.753Z,7.88
2023-03-29T13:53:04.023Z,7.88
2023-03-29T13:56:11.165Z,7.03
2023-03-29T13:59:25.413Z,7.30
2023-03-29T14:02:47.368Z,6.45
2023-03-29T14:05:58.063Z,6.03
2023-03-29T14:09:05.321Z,7.57
2023-03-29T14:12:10.955Z,7.15
2023-03-29T14:15:38.402Z,7.00
2023-03-29T14:18:42.130Z,6.43
2023-03-29T14:21:46.579Z,8.77
2023-03-29T14:24:54.043Z,7.43
2023-03-29T14:27:55.850Z,5.90
2023-03-29T14:31:01.797Z,7.25
2023-03-29T14:34:08.846Z,6.30
2023-03-29T14:37:14.822Z,5.15
2023-03-29T14:40:20.138Z,9.70
2023-03-29T14:43:24.124Z,5.25
2023-03-29T14:46:30.038Z,5.55
2023-03-29T14:49:34.727Z,6.03
2023-03-29T14:52:37.261Z,6.45
2023-03-29T14:55:40.525Z,5.45
2023-03-29T14:58:48.833Z,6.00
2023-03-29T15:01:54.161Z,5.68
2023-03-29T15:05:23.698Z,6.20
2023-03-29T15:08:38.263Z,6.25
2023-03-29T15:11:40.469Z,7.32
2023-03-29T15:14:43.829Z,6.72
2023-03-29T15:17:51.017Z,6.75
2023-03-29T15:20:59.914Z,8.25
2023-03-29T15:24:04.564Z,8.80
2023-03-29T15:27:23.725Z,8.60
2023-03-29T15:30:40.157Z,8.05
2023-03-29T15:33:44.157Z,7.15
2023-03-29T15:36:47.100Z,8.05
2023-03-29T15:39:49.144Z,10.23
2023-03-29T15:42:53.224Z,9.88
2023-03-29T15:45:57.900Z,8.75
2023-03-29T15:49:04.000Z,8.25
2023-03-29T15:52:06.761Z,10.75
2023-03-29T15:55:09.596Z,7.65
2023-03-29T15:58:22.930Z,9.25
2023-03-29T16:01:39.015Z,7.18
2023-03-29T16:04:40.841Z,9.32
2023-03-29T16:07:43.016Z,10.27
2023-03-29T16:10:47.240Z,9.40
2023-03-29T16:13:49.084Z,8.50
2023-03-29T16:17:03.566Z,8.32
2023-03-29T16:20:05.999Z,9.73
2023-03-29T16:23:14.504Z,10.27
2023-03-29T16:26:17.252Z,13.75
2023-03-29T16:29:19.387Z,12.10
2023-03-29T16:32:21.252Z,10.52
2023-03-29T16:35:32.123Z,9.60
2023-03-29T16:38:34.468Z,12.75
2023-03-29T16:41:37.445Z,11.27
2023-03-29T16:44:39.698Z,11.75
2023-03-29T16:47:48.628Z,11.75
2023-03-29T16:50:50.824Z,9.60
2023-03-29T16:53:57.846Z,16.15
2023-03-29T16:56:59.661Z,11.25
2023-03-29T17:00:02.484Z,10.75
2023-03-29T17:03:05.509Z,16.10
2023-03-29T17:06:12.751Z,15.48
2023-03-29T17:09:15.310Z,13.32
2023-03-29T17:12:17.589Z,11.90
2023-03-29T17:15:19.770Z,13.77
2023-03-29T17:18:23.795Z,12.02
2023-03-29T17:21:26.528Z,12.15
2023-03-29T17:24:33.873Z,12.15
2023-03-29T17:27:38.140Z,12.02
2023-03-29T17:30:41.181Z,12.63
2023-03-29T17:33:43.289Z,16.05
2023-03-29T17:36:49.117Z,13.82
2023-03-29T17:39:51.111Z,17.00
2023-03-29T17:42:53.428Z,18.48
2023-03-29T17:45:55.971Z,14.93
2023-03-29T17:49:00.289Z,16.85
2023-03-29T17:52:03.016Z,13.88
2023-03-29T17:55:11.324Z,15.25
2023-03-29T17:58:13.232Z,14.10
2023-03-29T18:01:24.759Z,15.50
2023-03-29T18:04:26.826Z,13.10
2023-03-29T18:07:29.927Z,14.80
2023-03-29T18:10:32.677Z,15.35
2023-03-29T18:13:36.083Z,12.32
2023-03-29T18:16:38.706Z,13.80
2023-03-29T18:19:44.006Z,14.35
2023-03-29T18:22:46.124Z,15.73
2023-03-29T18:25:48.394Z,14.70
2023-03-29T18:28:52.391Z,13.80
2023-03-29T18:31:54.937Z,13.40
2023-03-29T18:34:59.565Z,15.13
2023-03-29T18:38:06.704Z,15.63
2023-03-29T18:41:14.238Z,13.80
2023-03-29T18:44:16.643Z,13.20
2023-03-29T18:47:18.750Z,13.13
2023-03-29T18:50:23.470Z,14.05
2023-03-29T18:53:28.545Z,11.88
2023-03-29T18:56:32.311Z,14.45
2023-03-29T18:59:39.396Z,20.67
2023-03-29T19:02:43.741Z,18.83
2023-03-29T19:05:53.030Z,17.80
2023-03-29T19:09:06.632Z,15.95
2023-03-29T19:12:58.715Z,19.63
2023-03-29T19:15:39.982Z,15.57
2023-03-29T19:18:45.053Z,16.50
2023-03-29T19:29:53.150Z,14.70
2023-03-29T19:33:10.284Z,14.07
2023-03-29T19:36:16.352Z,14.63
2023-03-29T19:39:18.367Z,12.82
2023-03-29T19:42:31.940Z,15.13
2023-03-29T19:45:42.968Z,18.90
2023-03-29T19:49:05.161Z,12.93
2023-03-29T19:52:08.105Z,12.10
2023-03-29T19:55:10.929Z,15.48
2023-03-29T19:58:15.530Z,15.73
2023-03-29T20:01:32.161Z,12.98
2023-03-29T20:04:36.815Z,16.17
2023-03-29T20:07:41.445Z,17.60
2023-03-29T20:10:44.142Z,17.58
2023-03-29T20:13:45.953Z,12.65
2023-03-29T20:16:49.899Z,16.77
2023-03-29T20:19:55.664Z,13.82
2023-03-29T20:23:04.662Z,11.75
2023-03-29T20:26:10.534Z,14.85
2023-03-29T20:29:14.672Z,15.18
2023-03-29T20:32:16.405Z,12.65
2023-03-29T20:35:18.028Z,13.52
2023-03-29T20:38:19.809Z,11.73
2023-03-29T20:41:23.056Z,12.40
2023-03-29T20:44:26.419Z,12.48
2023-03-29T20:47:29.602Z,15.40
2023-03-29T20:50:33.698Z,18.13
2023-03-29T20:53:35.952Z,14.20
2023-03-29T20:56:40.244Z,27.02
2023-03-29T20:59:43.704Z,44.97
2023-03-29T21:02:46.984Z,36.42
2023-03-29T21:05:55.220Z,18.52
2023-03-29T21:08:57.521Z,13.40
2023-03-29T21:11:59.191Z,12.02
2023-03-29T21:15:02.426Z,11.30
2023-03-29T21:18:07.850Z,14.02
2023-03-29T21:21:10.942Z,14.82
2023-03-29T21:24:15.607Z,12.82
2023-03-29T21:27:18.362Z,14.70
2023-03-29T21:30:20.256Z,10.98
2023-03-29T21:33:22.298Z,10.65
2023-03-29T21:36:24.580Z,13.57
2023-03-29T21:39:29.195Z,10.23
2023-03-29T21:42:30.780Z,11.50
2023-03-29T21:45:32.459Z,10.13
2023-03-29T21:48:34.120Z,9.32
2023-03-29T21:51:36.074Z,8.43
2023-03-29T21:54:37.932Z,10.13
2023-03-29T21:57:39.901Z,10.35
2023-03-29T22:00:41.647Z,9.20
2023-03-29T22:03:44.393Z,8.82
2023-03-29T22:06:46.597Z,8.57
2023-03-29T22:09:48.465Z,8.95
2023-03-29T22:12:51.761Z,8.38
2023-03-29T22:16:01.220Z,7.07
2023-03-29T22:19:04.200Z,8.55
2023-03-29T22:22:06.584Z,8.95
2023-03-29T22:25:12.031Z,9.15
2023-03-29T22:28:13.999Z,8.30
2023-03-29T22:31:17.635Z,9.23
2023-03-29T22:34:19.558Z,7.78
2023-03-29T22:37:22.621Z,8.38
2023-03-29T22:40:27.637Z,6.18
2023-03-29T22:43:29.264Z,8.60
2023-03-29T22:46:31.876Z,10.55
2023-03-29T22:49:33.687Z,8.73
2023-03-29T22:52:36.470Z,9.55
2023-03-29T22:55:37.998Z,12.10
2023-03-29T22:58:39.789Z,7.50
2023-03-29T23:01:41.606Z,7.60
2023-03-29T23:04:45.509Z,8.20
2023-03-29T23:07:47.358Z,9.20
2023-03-29T23:11:23.732Z,8.93
2023-03-29T23:15:01.323Z,7.70
2023-03-29T23:18:04.718Z,10.88
2023-03-29T23:21:07.832Z,8.45
2023-03-29T23:24:10.603Z,9.98
2023-03-29T23:27:15.032Z,8.15
2023-03-29T23:30:18.542Z,8.10
2023-03-29T23:33:21.907Z,8.40
2023-03-29T23:36:25.683Z,9.82
2023-03-29T23:39:27.598Z,8.30
2023-03-29T23:42:29.780Z,7.55
2023-03-29T23:45:31.854Z,9.07
2023-03-29T23:48:34.311Z,7.68
2023-03-29T23:51:36.822Z,7.25
2023-03-29T23:54:39.539Z,6.38
2023-03-29T23:57:41.966Z,7.18
